sensor_id;sensor_type;location;lat;lon;timestamp;temperature;humidity
12370;DHT22;6249;52.128;9.986;2023-02-15T00:02:12;6.40;99.90
12370;DHT22;6249;52.128;9.986;2023-02-15T00:05:32;6.50;99.90
12370;DHT22;6249;52.128;9.986;2023-02-15T00:08:54;6.40;99.90
12370;DHT22;6249;52.128;9.986;2023-02-15T00:12:16;6.40;99.90
12370;DHT22;6249;52.128;9.986;2023-02-15T00:15:39;7.00;99.90
12370;DHT22;6249;52.128;9.986;2023-02-15T00:18:59;6.30;99.90
12370;DHT22;6249;52.128;9.986;2023-02-15T00:22:25;6.40;99.90
12370;DHT22;6249;52.128;9.986;2023-02-15T00:25:46;6.30;99.90
12370;DHT22;6249;52.128;9.986;2023-02-15T00:29:10;6.20;99.90
12370;DHT22;6249;52.128;9.986;2023-02-15T00:32:31;6.10;99.90
12370;DHT22;6249;52.128;9.986;2023-02-15T00:35:59;6.10;99.90
12370;DHT22;6249;52.128;9.986;2023-02-15T00:39:20;6.10;99.90
12370;DHT22;6249;52.128;9.986;2023-02-15T00:42:41;6.00;99.90
12370;DHT22;6249;52.128;9.986;2023-02-15T00:46:03;6.00;99.90
12370;DHT22;6249;52.128;9.986;2023-02-15T00:49:24;5.80;99.90
12370;DHT22;6249;52.128;9.986;2023-02-15T00:52:45;5.90;99.90
12370;DHT22;6249;52.128;9.986;2023-02-15T00:56:05;5.80;99.90
12370;DHT22;6249;52.128;9.986;2023-02-15T00:59:26;5.60;99.90
12370;DHT22;6249;52.128;9.986;2023-02-15T01:02:48;5.70;99.90
12370;DHT22;6249;52.128;9.986;2023-02-15T01:06:15;5.60;99.90
12370;DHT22;6249;52.128;9.986;2023-02-15T01:09:35;5.60;99.90
12370;DHT22;6249;52.128;9.986;2023-02-15T01:12:57;5.50;99.90
12370;DHT22;6249;52.128;9.986;2023-02-15T01:16:18;5.50;99.90
12370;DHT22;6249;52.128;9.986;2023-02-15T01:19:39;5.40;99.90
12370;DHT22;6249;52.128;9.986;2023-02-15T01:22:59;5.40;99.90
12370;DHT22;6249;52.128;9.986;2023-02-15T01:26:20;5.50;99.90
12370;DHT22;6249;52.128;9.986;2023-02-15T01:29:40;5.30;99.90
12370;DHT22;6249;52.128;9.986;2023-02-15T01:33:01;5.20;99.90
12370;DHT22;6249;52.128;9.986;2023-02-15T01:36:22;5.50;99.90
12370;DHT22;6249;52.128;9.986;2023-02-15T01:39:42;5.20;99.90
12370;DHT22;6249;52.128;9.986;2023-02-15T01:43:07;5.20;99.90
12370;DHT22;6249;52.128;9.986;2023-02-15T01:46:38;5.00;99.90
12370;DHT22;6249;52.128;9.986;2023-02-15T01:50:31;4.90;99.90
12370;DHT22;6249;52.128;9.986;2023-02-15T01:53:59;5.00;99.90
12370;DHT22;6249;52.128;9.986;2023-02-15T01:57:23;5.00;99.90
12370;DHT22;6249;52.128;9.986;2023-02-15T02:00:46;5.00;99.90
12370;DHT22;6249;52.128;9.986;2023-02-15T02:04:33;4.70;99.90
12370;DHT22;6249;52.128;9.986;2023-02-15T02:08:00;4.70;99.90
12370;DHT22;6249;52.128;9.986;2023-02-15T02:11:21;4.60;99.90
12370;DHT22;6249;52.128;9.986;2023-02-15T02:14:45;4.50;99.90
12370;DHT22;6249;52.128;9.986;2023-02-15T02:29:09;4.40;99.90
12370;DHT22;6249;52.128;9.986;2023-02-15T02:43:51;4.30;99.90
12370;DHT22;6249;52.128;9.986;2023-02-15T02:47:22;4.30;99.90
12370;DHT22;6249;52.128;9.986;2023-02-15T02:50:44;4.50;99.90
12370;DHT22;6249;52.128;9.986;2023-02-15T02:54:06;4.40;99.90
12370;DHT22;6249;52.128;9.986;2023-02-15T02:57:31;4.30;99.90
12370;DHT22;6249;52.128;9.986;2023-02-15T03:01:00;4.20;99.90
12370;DHT22;6249;52.128;9.986;2023-02-15T03:04:35;4.30;99.90
12370;DHT22;6249;52.128;9.986;2023-02-15T03:08:03;4.50;99.90
12370;DHT22;6249;52.128;9.986;2023-02-15T03:11:28;4.30;99.90
12370;DHT22;6249;52.128;9.986;2023-02-15T03:15:00;4.20;99.90
12370;DHT22;6249;52.128;9.986;2023-02-15T03:18:25;4.20;99.90
12370;DHT22;6249;52.128;9.986;2023-02-15T03:21:51;4.20;99.90
12370;DHT22;6249;52.128;9.986;2023-02-15T03:25:23;4.30;99.90
12370;DHT22;6249;52.128;9.986;2023-02-15T03:28:46;4.30;99.90
12370;DHT22;6249;52.128;9.986;2023-02-15T03:32:11;4.30;99.90
12370;DHT22;6249;52.128;9.986;2023-02-15T03:36:28;4.20;99.90
12370;DHT22;6249;52.128;9.986;2023-02-15T03:39:38;4.10;99.90
12370;DHT22;6249;52.128;9.986;2023-02-15T03:43:17;4.20;99.90
12370;DHT22;6249;52.128;9.986;2023-02-15T03:50:33;4.00;99.90
12370;DHT22;6249;52.128;9.986;2023-02-15T03:54:23;4.00;99.90
12370;DHT22;6249;52.128;9.986;2023-02-15T03:58:03;3.90;99.90
12370;DHT22;6249;52.128;9.986;2023-02-15T04:02:08;3.80;99.90
12370;DHT22;6249;52.128;9.986;2023-02-15T04:05:31;3.80;99.90
12370;DHT22;6249;52.128;9.986;2023-02-15T04:08:54;3.80;99.90
12370;DHT22;6249;52.128;9.986;2023-02-15T04:12:33;4.00;99.90
12370;DHT22;6249;52.128;9.986;2023-02-15T04:15:54;3.80;99.90
12370;DHT22;6249;52.128;9.986;2023-02-15T04:19:26;3.80;99.90
12370;DHT22;6249;52.128;9.986;2023-02-15T04:23:06;3.90;99.90
12370;DHT22;6249;52.128;9.986;2023-02-15T04:26:46;3.70;99.90
12370;DHT22;6249;52.128;9.986;2023-02-15T04:30:13;3.50;99.90
12370;DHT22;6249;52.128;9.986;2023-02-15T04:33:34;3.60;99.90
12370;DHT22;6249;52.128;9.986;2023-02-15T04:36:57;3.60;99.90
12370;DHT22;6249;52.128;9.986;2023-02-15T04:40:18;3.90;99.90
12370;DHT22;6249;52.128;9.986;2023-02-15T04:43:38;3.60;99.90
12370;DHT22;6249;52.128;9.986;2023-02-15T04:46:59;3.50;99.90
12370;DHT22;6249;52.128;9.986;2023-02-15T04:50:22;3.60;99.90
12370;DHT22;6249;52.128;9.986;2023-02-15T04:53:43;3.60;99.90
12370;DHT22;6249;52.128;9.986;2023-02-15T04:57:04;3.50;99.90
12370;DHT22;6249;52.128;9.986;2023-02-15T05:00:27;3.40;99.90
12370;DHT22;6249;52.128;9.986;2023-02-15T05:03:47;3.40;99.90
12370;DHT22;6249;52.128;9.986;2023-02-15T05:07:10;3.20;99.90
12370;DHT22;6249;52.128;9.986;2023-02-15T05:10:33;3.20;99.90
12370;DHT22;6249;52.128;9.986;2023-02-15T05:13:56;3.20;99.90
12370;DHT22;6249;52.128;9.986;2023-02-15T05:17:17;3.30;99.90
12370;DHT22;6249;52.128;9.986;2023-02-15T05:20:40;3.20;99.90
12370;DHT22;6249;52.128;9.986;2023-02-15T05:24:00;3.30;99.90
12370;DHT22;6249;52.128;9.986;2023-02-15T05:27:43;3.30;99.90
12370;DHT22;6249;52.128;9.986;2023-02-15T05:31:22;3.30;99.90
12370;DHT22;6249;52.128;9.986;2023-02-15T05:34:43;3.30;99.90
12370;DHT22;6249;52.128;9.986;2023-02-15T05:38:06;3.30;99.90
12370;DHT22;6249;52.128;9.986;2023-02-15T05:41:26;3.30;99.90
12370;DHT22;6249;52.128;9.986;2023-02-15T05:44:47;3.20;99.90
12370;DHT22;6249;52.128;9.986;2023-02-15T05:48:07;3.20;99.90
12370;DHT22;6249;52.128;9.986;2023-02-15T05:51:28;3.10;99.90
12370;DHT22;6249;52.128;9.986;2023-02-15T05:54:53;3.00;99.90
12370;DHT22;6249;52.128;9.986;2023-02-15T05:58:16;3.00;99.90
12370;DHT22;6249;52.128;9.986;2023-02-15T06:01:37;3.10;99.90
12370;DHT22;6249;52.128;9.986;2023-02-15T06:04:57;3.10;99.90
12370;DHT22;6249;52.128;9.986;2023-02-15T06:08:18;3.10;99.90
12370;DHT22;6249;52.128;9.986;2023-02-15T06:11:41;3.00;99.90
12370;DHT22;6249;52.128;9.986;2023-02-15T06:15:03;3.00;99.90
12370;DHT22;6249;52.128;9.986;2023-02-15T06:18:23;3.00;99.90
12370;DHT22;6249;52.128;9.986;2023-02-15T06:21:44;2.50;99.90
12370;DHT22;6249;52.128;9.986;2023-02-15T06:25:07;2.90;99.90
12370;DHT22;6249;52.128;9.986;2023-02-15T06:28:30;2.90;99.90
12370;DHT22;6249;52.128;9.986;2023-02-15T06:31:50;2.80;99.90
12370;DHT22;6249;52.128;9.986;2023-02-15T06:35:11;2.80;99.90
12370;DHT22;6249;52.128;9.986;2023-02-15T06:38:34;2.80;99.90
12370;DHT22;6249;52.128;9.986;2023-02-15T06:42:01;2.90;99.90
12370;DHT22;6249;52.128;9.986;2023-02-15T06:45:22;2.80;99.90
12370;DHT22;6249;52.128;9.986;2023-02-15T06:48:42;3.00;99.90
12370;DHT22;6249;52.128;9.986;2023-02-15T06:52:05;3.10;99.90
12370;DHT22;6249;52.128;9.986;2023-02-15T06:55:26;2.90;99.90
12370;DHT22;6249;52.128;9.986;2023-02-15T06:58:47;3.00;99.90
12370;DHT22;6249;52.128;9.986;2023-02-15T07:02:11;3.20;99.90
12370;DHT22;6249;52.128;9.986;2023-02-15T07:05:34;2.90;99.90
12370;DHT22;6249;52.128;9.986;2023-02-15T07:08:55;2.90;99.90
12370;DHT22;6249;52.128;9.986;2023-02-15T07:12:15;2.90;99.90
12370;DHT22;6249;52.128;9.986;2023-02-15T07:15:54;2.80;99.90
12370;DHT22;6249;52.128;9.986;2023-02-15T07:19:17;2.80;99.90
12370;DHT22;6249;52.128;9.986;2023-02-15T07:22:40;3.00;99.90
12370;DHT22;6249;52.128;9.986;2023-02-15T07:26:04;3.20;99.90
12370;DHT22;6249;52.128;9.986;2023-02-15T07:29:25;3.30;99.90
12370;DHT22;6249;52.128;9.986;2023-02-15T07:32:45;3.30;99.90
12370;DHT22;6249;52.128;9.986;2023-02-15T07:36:24;3.40;99.90
12370;DHT22;6249;52.128;9.986;2023-02-15T07:39:47;3.50;99.90
12370;DHT22;6249;52.128;9.986;2023-02-15T07:43:11;3.50;99.90
12370;DHT22;6249;52.128;9.986;2023-02-15T07:46:31;3.70;99.90
12370;DHT22;6249;52.128;9.986;2023-02-15T07:49:54;3.90;99.90
12370;DHT22;6249;52.128;9.986;2023-02-15T07:53:15;4.00;99.90
12370;DHT22;6249;52.128;9.986;2023-02-15T07:56:36;4.10;99.90
12370;DHT22;6249;52.128;9.986;2023-02-15T07:59:56;4.00;99.90
12370;DHT22;6249;52.128;9.986;2023-02-15T08:03:17;4.10;99.90
12370;DHT22;6249;52.128;9.986;2023-02-15T08:06:39;4.10;99.90
12370;DHT22;6249;52.128;9.986;2023-02-15T08:10:02;4.20;99.90
12370;DHT22;6249;52.128;9.986;2023-02-15T08:13:25;4.30;99.90
12370;DHT22;6249;52.128;9.986;2023-02-15T08:16:58;4.40;99.90
12370;DHT22;6249;52.128;9.986;2023-02-15T08:20:19;4.40;99.90
12370;DHT22;6249;52.128;9.986;2023-02-15T08:23:40;4.60;99.90
12370;DHT22;6249;52.128;9.986;2023-02-15T08:27:04;4.60;99.90
12370;DHT22;6249;52.128;9.986;2023-02-15T08:30:27;5.00;99.90
12370;DHT22;6249;52.128;9.986;2023-02-15T08:33:49;4.90;99.90
12370;DHT22;6249;52.128;9.986;2023-02-15T08:37:13;5.10;99.90
12370;DHT22;6249;52.128;9.986;2023-02-15T08:40:34;5.30;99.90
12370;DHT22;6249;52.128;9.986;2023-02-15T08:43:57;5.80;99.90
12370;DHT22;6249;52.128;9.986;2023-02-15T08:47:22;5.90;99.90
12370;DHT22;6249;52.128;9.986;2023-02-15T08:50:45;6.20;99.90
12370;DHT22;6249;52.128;9.986;2023-02-15T08:54:08;6.50;99.90
12370;DHT22;6249;52.128;9.986;2023-02-15T08:57:29;6.70;99.90
12370;DHT22;6249;52.128;9.986;2023-02-15T09:00:52;7.10;99.90
12370;DHT22;6249;52.128;9.986;2023-02-15T09:04:13;7.40;99.90
12370;DHT22;6249;52.128;9.986;2023-02-15T09:07:35;7.60;99.90
12370;DHT22;6249;52.128;9.986;2023-02-15T09:11:20;7.70;99.90
12370;DHT22;6249;52.128;9.986;2023-02-15T09:14:44;7.90;99.90
12370;DHT22;6249;52.128;9.986;2023-02-15T09:18:04;7.70;99.90
12370;DHT22;6249;52.128;9.986;2023-02-15T09:21:26;7.90;99.90
12370;DHT22;6249;52.128;9.986;2023-02-15T09:24:47;8.10;99.90
12370;DHT22;6249;52.128;9.986;2023-02-15T09:28:08;8.30;99.90
12370;DHT22;6249;52.128;9.986;2023-02-15T09:31:33;8.30;99.90
12370;DHT22;6249;52.128;9.986;2023-02-15T09:34:54;8.50;99.90
12370;DHT22;6249;52.128;9.986;2023-02-15T09:38:15;8.80;99.90
12370;DHT22;6249;52.128;9.986;2023-02-15T09:45:34;8.90;99.90
12370;DHT22;6249;52.128;9.986;2023-02-15T09:56:41;9.80;99.90
12370;DHT22;6249;52.128;9.986;2023-02-15T10:00:18;10.10;99.90
12370;DHT22;6249;52.128;9.986;2023-02-15T10:11:16;10.50;99.20
12370;DHT22;6249;52.128;9.986;2023-02-15T10:22:30;11.50;98.00
12370;DHT22;6249;52.128;9.986;2023-02-15T10:33:03;12.00;97.40
12370;DHT22;6249;52.128;9.986;2023-02-15T10:40:33;12.60;95.40
12370;DHT22;6249;52.128;9.986;2023-02-15T10:55:28;13.90;93.80
12370;DHT22;6249;52.128;9.986;2023-02-15T11:09:20;14.40;92.30
12370;DHT22;6249;52.128;9.986;2023-02-15T11:12:45;14.50;91.70
12370;DHT22;6249;52.128;9.986;2023-02-15T11:16:18;15.30;90.80
12370;DHT22;6249;52.128;9.986;2023-02-15T11:20:07;15.80;90.30
12370;DHT22;6249;52.128;9.986;2023-02-15T11:23:28;16.10;89.20
12370;DHT22;6249;52.128;9.986;2023-02-15T11:27:21;16.20;89.80
12370;DHT22;6249;52.128;9.986;2023-02-15T11:30:49;16.30;88.40
12370;DHT22;6249;52.128;9.986;2023-02-15T11:34:30;16.40;89.00
12370;DHT22;6249;52.128;9.986;2023-02-15T11:41:29;17.20;85.20
12370;DHT22;6249;52.128;9.986;2023-02-15T11:45:30;17.60;85.30
12370;DHT22;6249;52.128;9.986;2023-02-15T11:48:51;17.50;82.70
12370;DHT22;6249;52.128;9.986;2023-02-15T11:52:14;17.60;83.20
12370;DHT22;6249;52.128;9.986;2023-02-15T11:55:35;17.80;81.30
12370;DHT22;6249;52.128;9.986;2023-02-15T11:59:04;18.20;80.20
12370;DHT22;6249;52.128;9.986;2023-02-15T12:02:27;18.80;79.40
12370;DHT22;6249;52.128;9.986;2023-02-15T12:05:58;18.60;77.50
12370;DHT22;6249;52.128;9.986;2023-02-15T12:13:24;18.90;78.20
12370;DHT22;6249;52.128;9.986;2023-02-15T12:16:54;19.00;75.40
12370;DHT22;6249;52.128;9.986;2023-02-15T12:23:50;18.00;76.70
12370;DHT22;6249;52.128;9.986;2023-02-15T12:27:46;18.10;76.70
12370;DHT22;6249;52.128;9.986;2023-02-15T12:34:59;18.80;75.90
12370;DHT22;6249;52.128;9.986;2023-02-15T12:38:25;18.70;76.20
12370;DHT22;6249;52.128;9.986;2023-02-15T12:41:58;18.50;75.30
12370;DHT22;6249;52.128;9.986;2023-02-15T12:48:46;18.70;75.40
12370;DHT22;6249;52.128;9.986;2023-02-15T12:59:22;19.40;73.50
12370;DHT22;6249;52.128;9.986;2023-02-15T13:02:48;20.20;72.50
12370;DHT22;6249;52.128;9.986;2023-02-15T13:06:10;20.90;67.10
12370;DHT22;6249;52.128;9.986;2023-02-15T13:12:52;19.90;65.20
12370;DHT22;6249;52.128;9.986;2023-02-15T13:16:17;19.40;69.50
12370;DHT22;6249;52.128;9.986;2023-02-15T13:19:41;19.90;67.60
12370;DHT22;6249;52.128;9.986;2023-02-15T13:23:10;19.80;67.80
12370;DHT22;6249;52.128;9.986;2023-02-15T13:26:35;19.70;67.10
12370;DHT22;6249;52.128;9.986;2023-02-15T13:29:59;20.00;68.60
12370;DHT22;6249;52.128;9.986;2023-02-15T13:33:25;20.50;67.60
12370;DHT22;6249;52.128;9.986;2023-02-15T13:40:53;21.50;65.40
12370;DHT22;6249;52.128;9.986;2023-02-15T13:44:40;21.40;65.30
12370;DHT22;6249;52.128;9.986;2023-02-15T13:55:19;21.50;64.90
12370;DHT22;6249;52.128;9.986;2023-02-15T14:30:33;19.60;68.00
12370;DHT22;6249;52.128;9.986;2023-02-15T14:34:00;18.60;71.40
12370;DHT22;6249;52.128;9.986;2023-02-15T14:41:40;17.60;75.30
12370;DHT22;6249;52.128;9.986;2023-02-15T14:45:20;17.70;76.70
12370;DHT22;6249;52.128;9.986;2023-02-15T14:48:50;18.00;77.40
12370;DHT22;6249;52.128;9.986;2023-02-15T14:52:12;18.10;74.70
12370;DHT22;6249;52.128;9.986;2023-02-15T14:55:36;18.10;76.20
12370;DHT22;6249;52.128;9.986;2023-02-15T14:59:19;18.00;76.10
12370;DHT22;6249;52.128;9.986;2023-02-15T15:02:50;17.70;77.80
12370;DHT22;6249;52.128;9.986;2023-02-15T15:06:25;17.90;78.80
12370;DHT22;6249;52.128;9.986;2023-02-15T15:13:39;17.90;76.70
12370;DHT22;6249;52.128;9.986;2023-02-15T15:17:51;17.90;77.60
12370;DHT22;6249;52.128;9.986;2023-02-15T15:21:00;17.70;77.90
12370;DHT22;6249;52.128;9.986;2023-02-15T15:27:59;17.50;79.60
12370;DHT22;6249;52.128;9.986;2023-02-15T15:46:01;16.40;80.70
12370;DHT22;6249;52.128;9.986;2023-02-15T15:49:30;16.50;81.50
12370;DHT22;6249;52.128;9.986;2023-02-15T15:52:58;16.60;79.80
12370;DHT22;6249;52.128;9.986;2023-02-15T15:56:25;16.50;81.30
12370;DHT22;6249;52.128;9.986;2023-02-15T15:59:49;16.10;81.10
12370;DHT22;6249;52.128;9.986;2023-02-15T16:03:35;15.80;80.90
12370;DHT22;6249;52.128;9.986;2023-02-15T16:10:40;14.50;84.80
12370;DHT22;6249;52.128;9.986;2023-02-15T16:14:03;13.80;86.10
12370;DHT22;6249;52.128;9.986;2023-02-15T16:17:31;13.10;90.20
12370;DHT22;6249;52.128;9.986;2023-02-15T16:20:56;12.80;91.30
12370;DHT22;6249;52.128;9.986;2023-02-15T16:24:25;12.20;92.80
12370;DHT22;6249;52.128;9.986;2023-02-15T16:27:49;11.70;94.30
12370;DHT22;6249;52.128;9.986;2023-02-15T16:31:14;11.40;94.90
12370;DHT22;6249;52.128;9.986;2023-02-15T16:34:37;11.30;96.20
12370;DHT22;6249;52.128;9.986;2023-02-15T16:38:01;11.20;96.70
12370;DHT22;6249;52.128;9.986;2023-02-15T16:41:29;11.40;96.60
12370;DHT22;6249;52.128;9.986;2023-02-15T16:48:28;10.90;97.50
12370;DHT22;6249;52.128;9.986;2023-02-15T16:52:14;10.50;98.10
12370;DHT22;6249;52.128;9.986;2023-02-15T16:55:39;10.40;98.60
12370;DHT22;6249;52.128;9.986;2023-02-15T16:59:02;10.20;99.20
12370;DHT22;6249;52.128;9.986;2023-02-15T17:02:28;10.20;99.90
12370;DHT22;6249;52.128;9.986;2023-02-15T17:05:58;9.80;99.90
12370;DHT22;6249;52.128;9.986;2023-02-15T17:09:19;9.70;99.90
12370;DHT22;6249;52.128;9.986;2023-02-15T17:12:46;9.70;99.90
12370;DHT22;6249;52.128;9.986;2023-02-15T17:16:27;9.70;99.90
12370;DHT22;6249;52.128;9.986;2023-02-15T17:19:53;9.70;99.90
12370;DHT22;6249;52.128;9.986;2023-02-15T17:23:34;9.40;99.90
12370;DHT22;6249;52.128;9.986;2023-02-15T17:26:59;9.10;99.90
12370;DHT22;6249;52.128;9.986;2023-02-15T17:30:33;9.10;99.90
12370;DHT22;6249;52.128;9.986;2023-02-15T17:33:59;9.00;99.90
12370;DHT22;6249;52.128;9.986;2023-02-15T17:40:56;8.90;99.90
12370;DHT22;6249;52.128;9.986;2023-02-15T17:44:18;8.70;99.90
12370;DHT22;6249;52.128;9.986;2023-02-15T17:47:42;8.70;99.90
12370;DHT22;6249;52.128;9.986;2023-02-15T17:51:05;8.80;99.90
12370;DHT22;6249;52.128;9.986;2023-02-15T17:54:27;8.60;99.90
12370;DHT22;6249;52.128;9.986;2023-02-15T17:58:12;8.60;99.90
12370;DHT22;6249;52.128;9.986;2023-02-15T18:01:47;8.60;99.90
12370;DHT22;6249;52.128;9.986;2023-02-15T18:05:26;8.40;99.90
12370;DHT22;6249;52.128;9.986;2023-02-15T18:09:08;8.20;99.90
12370;DHT22;6249;52.128;9.986;2023-02-15T18:12:47;8.10;99.90
12370;DHT22;6249;52.128;9.986;2023-02-15T18:16:13;8.00;99.90
12370;DHT22;6249;52.128;9.986;2023-02-15T18:19:35;8.00;99.90
12370;DHT22;6249;52.128;9.986;2023-02-15T18:22:59;8.00;99.90
12370;DHT22;6249;52.128;9.986;2023-02-15T18:26:22;7.90;99.90
12370;DHT22;6249;52.128;9.986;2023-02-15T18:29:43;8.60;99.90
12370;DHT22;6249;52.128;9.986;2023-02-15T18:33:17;7.70;99.90
12370;DHT22;6249;52.128;9.986;2023-02-15T18:36:44;7.70;99.90
12370;DHT22;6249;52.128;9.986;2023-02-15T18:40:15;7.50;99.90
12370;DHT22;6249;52.128;9.986;2023-02-15T18:43:36;7.50;99.90
12370;DHT22;6249;52.128;9.986;2023-02-15T18:46:57;7.60;99.90
12370;DHT22;6249;52.128;9.986;2023-02-15T18:50:19;7.40;99.90
12370;DHT22;6249;52.128;9.986;2023-02-15T18:53:40;7.30;99.90
12370;DHT22;6249;52.128;9.986;2023-02-15T18:57:03;7.30;99.90
12370;DHT22;6249;52.128;9.986;2023-02-15T19:00:26;7.20;99.90
12370;DHT22;6249;52.128;9.986;2023-02-15T19:03:49;7.30;99.90
12370;DHT22;6249;52.128;9.986;2023-02-15T19:10:39;7.40;99.90
12370;DHT22;6249;52.128;9.986;2023-02-15T19:13:59;7.30;99.90
12370;DHT22;6249;52.128;9.986;2023-02-15T19:17:23;7.40;99.90
12370;DHT22;6249;52.128;9.986;2023-02-15T19:20:45;7.20;99.90
12370;DHT22;6249;52.128;9.986;2023-02-15T19:24:20;7.20;99.90
12370;DHT22;6249;52.128;9.986;2023-02-15T19:27:42;7.10;99.90
12370;DHT22;6249;52.128;9.986;2023-02-15T19:31:04;7.10;99.90
12370;DHT22;6249;52.128;9.986;2023-02-15T19:34:26;7.00;99.90
12370;DHT22;6249;52.128;9.986;2023-02-15T19:37:51;6.90;99.90
12370;DHT22;6249;52.128;9.986;2023-02-15T19:41:17;6.80;99.90
12370;DHT22;6249;52.128;9.986;2023-02-15T19:44:41;6.80;99.90
12370;DHT22;6249;52.128;9.986;2023-02-15T19:48:05;6.80;99.90
12370;DHT22;6249;52.128;9.986;2023-02-15T19:51:26;6.80;99.90
12370;DHT22;6249;52.128;9.986;2023-02-15T19:54:48;6.70;99.90
12370;DHT22;6249;52.128;9.986;2023-02-15T19:58:11;6.60;99.90
12370;DHT22;6249;52.128;9.986;2023-02-15T20:01:40;6.90;99.90
12370;DHT22;6249;52.128;9.986;2023-02-15T20:05:03;6.50;99.90
12370;DHT22;6249;52.128;9.986;2023-02-15T20:08:28;6.50;99.90
12370;DHT22;6249;52.128;9.986;2023-02-15T20:11:52;6.30;99.90
12370;DHT22;6249;52.128;9.986;2023-02-15T20:15:22;6.30;99.90
12370;DHT22;6249;52.128;9.986;2023-02-15T20:18:43;6.20;99.90
12370;DHT22;6249;52.128;9.986;2023-02-15T20:22:30;6.20;99.90
12370;DHT22;6249;52.128;9.986;2023-02-15T20:25:51;6.20;99.90
12370;DHT22;6249;52.128;9.986;2023-02-15T20:29:17;6.30;99.90
12370;DHT22;6249;52.128;9.986;2023-02-15T20:32:38;6.40;99.90
12370;DHT22;6249;52.128;9.986;2023-02-15T20:35:58;6.20;99.90
12370;DHT22;6249;52.128;9.986;2023-02-15T20:39:19;6.20;99.90
12370;DHT22;6249;52.128;9.986;2023-02-15T20:42:40;6.20;99.90
12370;DHT22;6249;52.128;9.986;2023-02-15T20:46:00;6.10;99.90
12370;DHT22;6249;52.128;9.986;2023-02-15T20:49:25;6.10;99.90
12370;DHT22;6249;52.128;9.986;2023-02-15T20:52:48;6.00;99.90
12370;DHT22;6249;52.128;9.986;2023-02-15T20:56:20;6.00;99.90
12370;DHT22;6249;52.128;9.986;2023-02-15T20:59:40;5.90;99.90
12370;DHT22;6249;52.128;9.986;2023-02-15T21:03:01;5.90;99.90
12370;DHT22;6249;52.128;9.986;2023-02-15T21:06:32;5.80;99.90
12370;DHT22;6249;52.128;9.986;2023-02-15T21:09:54;5.90;99.90
12370;DHT22;6249;52.128;9.986;2023-02-15T21:13:26;5.80;99.90
12370;DHT22;6249;52.128;9.986;2023-02-15T21:16:49;5.80;99.90
12370;DHT22;6249;52.128;9.986;2023-02-15T21:20:13;5.70;99.90
12370;DHT22;6249;52.128;9.986;2023-02-15T21:23:36;5.60;99.90
12370;DHT22;6249;52.128;9.986;2023-02-15T21:26:59;5.60;99.90
12370;DHT22;6249;52.128;9.986;2023-02-15T21:30:25;5.60;99.90
12370;DHT22;6249;52.128;9.986;2023-02-15T21:33:46;5.50;99.90
12370;DHT22;6249;52.128;9.986;2023-02-15T21:37:24;5.50;99.90
12370;DHT22;6249;52.128;9.986;2023-02-15T21:40:46;5.40;99.90
12370;DHT22;6249;52.128;9.986;2023-02-15T21:44:21;5.40;99.90
12370;DHT22;6249;52.128;9.986;2023-02-15T21:48:01;5.40;99.90
12370;DHT22;6249;52.128;9.986;2023-02-15T21:51:24;5.30;99.90
12370;DHT22;6249;52.128;9.986;2023-02-15T21:55:11;5.20;99.90
12370;DHT22;6249;52.128;9.986;2023-02-15T21:58:35;5.30;99.90
12370;DHT22;6249;52.128;9.986;2023-02-15T22:01:56;5.30;99.90
12370;DHT22;6249;52.128;9.986;2023-02-15T22:05:20;5.40;99.90
12370;DHT22;6249;52.128;9.986;2023-02-15T22:08:41;5.30;99.90
12370;DHT22;6249;52.128;9.986;2023-02-15T22:12:01;5.30;99.90
12370;DHT22;6249;52.128;9.986;2023-02-15T22:15:24;5.20;99.90
12370;DHT22;6249;52.128;9.986;2023-02-15T22:18:46;5.20;99.90
12370;DHT22;6249;52.128;9.986;2023-02-15T22:22:07;5.10;99.90
12370;DHT22;6249;52.128;9.986;2023-02-15T22:25:30;5.20;99.90
12370;DHT22;6249;52.128;9.986;2023-02-15T22:28:51;5.20;99.90
12370;DHT22;6249;52.128;9.986;2023-02-15T22:32:19;5.10;99.90
12370;DHT22;6249;52.128;9.986;2023-02-15T22:35:40;5.20;99.90
12370;DHT22;6249;52.128;9.986;2023-02-15T22:39:03;5.10;99.90
12370;DHT22;6249;52.128;9.986;2023-02-15T22:42:27;5.00;99.90
12370;DHT22;6249;52.128;9.986;2023-02-15T22:45:48;4.90;99.90
12370;DHT22;6249;52.128;9.986;2023-02-15T22:49:12;4.90;99.90
12370;DHT22;6249;52.128;9.986;2023-02-15T22:52:33;4.90;99.90
12370;DHT22;6249;52.128;9.986;2023-02-15T22:56:03;4.80;99.90
12370;DHT22;6249;52.128;9.986;2023-02-15T22:59:27;4.70;99.90
12370;DHT22;6249;52.128;9.986;2023-02-15T23:02:49;4.60;99.90
12370;DHT22;6249;52.128;9.986;2023-02-15T23:06:10;4.60;99.90
12370;DHT22;6249;52.128;9.986;2023-02-15T23:09:30;4.70;99.90
12370;DHT22;6249;52.128;9.986;2023-02-15T23:12:58;4.60;99.90
12370;DHT22;6249;52.128;9.986;2023-02-15T23:16:38;4.60;99.90
12370;DHT22;6249;52.128;9.986;2023-02-15T23:19:59;4.70;99.90
12370;DHT22;6249;52.128;9.986;2023-02-15T23:23:34;4.70;99.90
12370;DHT22;6249;52.128;9.986;2023-02-15T23:26:58;4.60;99.90
12370;DHT22;6249;52.128;9.986;2023-02-15T23:30:39;4.40;99.90
12370;DHT22;6249;52.128;9.986;2023-02-15T23:34:11;4.50;99.90
12370;DHT22;6249;52.128;9.986;2023-02-15T23:37:33;4.40;99.90
12370;DHT22;6249;52.128;9.986;2023-02-15T23:40:59;4.40;99.90
12370;DHT22;6249;52.128;9.986;2023-02-15T23:44:38;4.30;99.90
12370;DHT22;6249;52.128;9.986;2023-02-15T23:48:00;4.20;99.90
12370;DHT22;6249;52.128;9.986;2023-02-15T23:51:43;4.30;99.90
12370;DHT22;6249;52.128;9.986;2023-02-15T23:55:05;4.10;99.90
12370;DHT22;6249;52.128;9.986;2023-02-15T23:58:33;4.30;99.90
